sensor_id;sensor_type;location;lat;lon;timestamp;temperature;humidity
19970;DHT22;10146;47.754;9.566;2023-04-24T00:00:22;10.20;99.90
19970;DHT22;10146;47.754;9.566;2023-04-24T00:02:48;10.10;99.90
19970;DHT22;10146;47.754;9.566;2023-04-24T00:05:14;10.10;99.90
19970;DHT22;10146;47.754;9.566;2023-04-24T00:07:44;10.10;99.90
19970;DHT22;10146;47.754;9.566;2023-04-24T00:10:10;10.20;99.90
19970;DHT22;10146;47.754;9.566;2023-04-24T00:12:37;10.20;99.90
19970;DHT22;10146;47.754;9.566;2023-04-24T00:15:03;10.30;99.90
19970;DHT22;10146;47.754;9.566;2023-04-24T00:17:29;10.30;99.90
19970;DHT22;10146;47.754;9.566;2023-04-24T00:19:54;10.30;99.90
19970;DHT22;10146;47.754;9.566;2023-04-24T00:22:28;10.30;99.90
19970;DHT22;10146;47.754;9.566;2023-04-24T00:24:54;10.30;99.90
19970;DHT22;10146;47.754;9.566;2023-04-24T00:27:20;10.30;99.90
19970;DHT22;10146;47.754;9.566;2023-04-24T00:29:46;10.30;99.90
19970;DHT22;10146;47.754;9.566;2023-04-24T00:32:11;10.30;99.90
19970;DHT22;10146;47.754;9.566;2023-04-24T00:34:37;10.30;99.90
19970;DHT22;10146;47.754;9.566;2023-04-24T00:37:03;10.30;99.90
19970;DHT22;10146;47.754;9.566;2023-04-24T00:39:28;10.30;99.90
19970;DHT22;10146;47.754;9.566;2023-04-24T00:41:54;10.40;99.90
19970;DHT22;10146;47.754;9.566;2023-04-24T00:44:20;10.40;99.90
19970;DHT22;10146;47.754;9.566;2023-04-24T00:46:49;10.20;99.90
19970;DHT22;10146;47.754;9.566;2023-04-24T00:49:20;10.20;99.90
19970;DHT22;10146;47.754;9.566;2023-04-24T00:51:46;10.10;99.90
19970;DHT22;10146;47.754;9.566;2023-04-24T00:54:12;10.20;99.90
19970;DHT22;10146;47.754;9.566;2023-04-24T00:56:39;10.20;99.90
19970;DHT22;10146;47.754;9.566;2023-04-24T00:59:04;10.20;99.90
19970;DHT22;10146;47.754;9.566;2023-04-24T01:01:30;10.20;99.90
19970;DHT22;10146;47.754;9.566;2023-04-24T01:03:57;10.20;99.90
19970;DHT22;10146;47.754;9.566;2023-04-24T01:06:23;10.20;99.90
19970;DHT22;10146;47.754;9.566;2023-04-24T01:08:52;10.20;99.90
19970;DHT22;10146;47.754;9.566;2023-04-24T01:11:18;10.20;99.90
19970;DHT22;10146;47.754;9.566;2023-04-24T01:13:44;10.20;99.90
19970;DHT22;10146;47.754;9.566;2023-04-24T01:16:11;10.20;99.90
19970;DHT22;10146;47.754;9.566;2023-04-24T01:18:37;10.20;99.90
19970;DHT22;10146;47.754;9.566;2023-04-24T01:21:04;10.10;99.90
19970;DHT22;10146;47.754;9.566;2023-04-24T01:23:30;10.20;99.90
19970;DHT22;10146;47.754;9.566;2023-04-24T01:25:56;10.10;99.90
19970;DHT22;10146;47.754;9.566;2023-04-24T01:28:22;10.10;99.90
19970;DHT22;10146;47.754;9.566;2023-04-24T01:30:48;10.10;99.90
19970;DHT22;10146;47.754;9.566;2023-04-24T01:33:14;10.00;99.90
19970;DHT22;10146;47.754;9.566;2023-04-24T01:35:40;10.10;99.90
19970;DHT22;10146;47.754;9.566;2023-04-24T01:38:05;10.00;99.90
19970;DHT22;10146;47.754;9.566;2023-04-24T01:40:32;10.00;99.90
19970;DHT22;10146;47.754;9.566;2023-04-24T01:42:58;10.10;99.90
19970;DHT22;10146;47.754;9.566;2023-04-24T01:45:24;10.10;99.90
19970;DHT22;10146;47.754;9.566;2023-04-24T01:47:50;10.00;99.90
19970;DHT22;10146;47.754;9.566;2023-04-24T01:50:16;10.00;99.90
19970;DHT22;10146;47.754;9.566;2023-04-24T01:52:41;10.10;99.90
19970;DHT22;10146;47.754;9.566;2023-04-24T01:55:07;10.00;99.90
19970;DHT22;10146;47.754;9.566;2023-04-24T01:57:33;10.00;99.90
19970;DHT22;10146;47.754;9.566;2023-04-24T01:59:59;10.00;99.90
19970;DHT22;10146;47.754;9.566;2023-04-24T02:02:25;9.90;99.90
19970;DHT22;10146;47.754;9.566;2023-04-24T02:04:53;9.90;99.90
19970;DHT22;10146;47.754;9.566;2023-04-24T02:07:18;10.00;99.90
19970;DHT22;10146;47.754;9.566;2023-04-24T02:09:44;9.90;99.90
19970;DHT22;10146;47.754;9.566;2023-04-24T02:12:10;9.90;99.90
19970;DHT22;10146;47.754;9.566;2023-04-24T02:14:35;9.90;99.90
19970;DHT22;10146;47.754;9.566;2023-04-24T02:17:01;9.90;99.90
19970;DHT22;10146;47.754;9.566;2023-04-24T02:19:27;10.00;99.90
19970;DHT22;10146;47.754;9.566;2023-04-24T02:21:52;9.90;99.90
19970;DHT22;10146;47.754;9.566;2023-04-24T02:24:18;9.90;99.90
19970;DHT22;10146;47.754;9.566;2023-04-24T02:26:43;9.90;99.90
19970;DHT22;10146;47.754;9.566;2023-04-24T02:29:09;9.90;99.90
19970;DHT22;10146;47.754;9.566;2023-04-24T02:31:35;9.90;99.90
19970;DHT22;10146;47.754;9.566;2023-04-24T02:34:00;9.90;99.90
19970;DHT22;10146;47.754;9.566;2023-04-24T02:36:26;9.90;99.90
19970;DHT22;10146;47.754;9.566;2023-04-24T02:38:52;9.90;99.90
19970;DHT22;10146;47.754;9.566;2023-04-24T02:41:17;9.90;99.90
19970;DHT22;10146;47.754;9.566;2023-04-24T02:43:43;9.90;99.90
19970;DHT22;10146;47.754;9.566;2023-04-24T02:46:09;9.90;99.90
19970;DHT22;10146;47.754;9.566;2023-04-24T02:48:34;10.00;99.90
19970;DHT22;10146;47.754;9.566;2023-04-24T02:51:00;9.90;99.90
19970;DHT22;10146;47.754;9.566;2023-04-24T02:53:26;10.00;99.90
19970;DHT22;10146;47.754;9.566;2023-04-24T02:55:51;9.90;99.90
19970;DHT22;10146;47.754;9.566;2023-04-24T02:58:17;9.90;99.90
19970;DHT22;10146;47.754;9.566;2023-04-24T03:00:45;9.90;99.90
19970;DHT22;10146;47.754;9.566;2023-04-24T03:03:11;9.90;99.90
19970;DHT22;10146;47.754;9.566;2023-04-24T03:05:36;9.90;99.90
19970;DHT22;10146;47.754;9.566;2023-04-24T03:08:02;9.90;99.90
19970;DHT22;10146;47.754;9.566;2023-04-24T03:10:27;10.00;99.90
19970;DHT22;10146;47.754;9.566;2023-04-24T03:12:53;9.80;99.90
19970;DHT22;10146;47.754;9.566;2023-04-24T03:15:20;9.90;99.90
19970;DHT22;10146;47.754;9.566;2023-04-24T03:17:45;10.00;99.90
19970;DHT22;10146;47.754;9.566;2023-04-24T03:20:11;9.90;99.90
19970;DHT22;10146;47.754;9.566;2023-04-24T03:22:37;9.90;99.90
19970;DHT22;10146;47.754;9.566;2023-04-24T03:25:03;9.90;99.90
19970;DHT22;10146;47.754;9.566;2023-04-24T03:27:29;9.80;99.90
19970;DHT22;10146;47.754;9.566;2023-04-24T03:29:54;9.80;99.90
19970;DHT22;10146;47.754;9.566;2023-04-24T03:32:23;9.90;99.90
19970;DHT22;10146;47.754;9.566;2023-04-24T03:34:49;9.80;99.90
19970;DHT22;10146;47.754;9.566;2023-04-24T03:37:16;9.80;99.90
19970;DHT22;10146;47.754;9.566;2023-04-24T03:39:41;9.80;99.90
19970;DHT22;10146;47.754;9.566;2023-04-24T03:42:07;9.70;99.90
19970;DHT22;10146;47.754;9.566;2023-04-24T03:44:34;9.60;99.90
19970;DHT22;10146;47.754;9.566;2023-04-24T03:47:00;9.60;99.90
19970;DHT22;10146;47.754;9.566;2023-04-24T03:49:26;9.70;99.90
19970;DHT22;10146;47.754;9.566;2023-04-24T03:51:51;9.60;99.90
19970;DHT22;10146;47.754;9.566;2023-04-24T03:54:18;9.50;99.90
19970;DHT22;10146;47.754;9.566;2023-04-24T03:56:44;9.40;99.90
19970;DHT22;10146;47.754;9.566;2023-04-24T03:59:10;9.40;99.90
19970;DHT22;10146;47.754;9.566;2023-04-24T04:01:35;9.40;99.90
19970;DHT22;10146;47.754;9.566;2023-04-24T04:04:08;9.40;99.90
19970;DHT22;10146;47.754;9.566;2023-04-24T04:06:34;9.40;99.90
19970;DHT22;10146;47.754;9.566;2023-04-24T04:09:00;9.30;99.90
19970;DHT22;10146;47.754;9.566;2023-04-24T04:11:26;9.40;99.90
19970;DHT22;10146;47.754;9.566;2023-04-24T04:13:51;9.30;99.90
19970;DHT22;10146;47.754;9.566;2023-04-24T04:16:17;9.40;99.90
19970;DHT22;10146;47.754;9.566;2023-04-24T04:18:43;9.40;99.90
19970;DHT22;10146;47.754;9.566;2023-04-24T04:21:09;9.40;99.90
19970;DHT22;10146;47.754;9.566;2023-04-24T04:23:35;9.40;99.90
19970;DHT22;10146;47.754;9.566;2023-04-24T04:26:01;9.40;99.90
19970;DHT22;10146;47.754;9.566;2023-04-24T04:28:27;9.40;99.90
19970;DHT22;10146;47.754;9.566;2023-04-24T04:30:52;9.40;99.90
19970;DHT22;10146;47.754;9.566;2023-04-24T04:33:20;9.40;99.90
19970;DHT22;10146;47.754;9.566;2023-04-24T04:35:46;9.50;99.90
19970;DHT22;10146;47.754;9.566;2023-04-24T04:38:14;9.50;99.90
19970;DHT22;10146;47.754;9.566;2023-04-24T04:40:40;9.40;99.90
19970;DHT22;10146;47.754;9.566;2023-04-24T04:43:06;9.40;99.90
19970;DHT22;10146;47.754;9.566;2023-04-24T04:45:32;9.40;99.90
19970;DHT22;10146;47.754;9.566;2023-04-24T04:47:59;9.40;99.90
19970;DHT22;10146;47.754;9.566;2023-04-24T04:50:26;9.40;99.90
19970;DHT22;10146;47.754;9.566;2023-04-24T04:52:52;9.40;99.90
19970;DHT22;10146;47.754;9.566;2023-04-24T04:55:18;9.50;99.90
19970;DHT22;10146;47.754;9.566;2023-04-24T04:57:45;9.40;99.90
19970;DHT22;10146;47.754;9.566;2023-04-24T05:00:11;9.30;99.90
19970;DHT22;10146;47.754;9.566;2023-04-24T05:02:40;9.30;99.90
19970;DHT22;10146;47.754;9.566;2023-04-24T05:05:07;9.30;99.90
19970;DHT22;10146;47.754;9.566;2023-04-24T05:07:33;9.30;99.90
19970;DHT22;10146;47.754;9.566;2023-04-24T05:09:58;9.40;99.90
19970;DHT22;10146;47.754;9.566;2023-04-24T05:12:24;9.40;99.90
19970;DHT22;10146;47.754;9.566;2023-04-24T05:14:50;9.40;99.90
19970;DHT22;10146;47.754;9.566;2023-04-24T05:17:15;9.40;99.90
19970;DHT22;10146;47.754;9.566;2023-04-24T05:19:41;9.50;99.90
19970;DHT22;10146;47.754;9.566;2023-04-24T05:22:08;9.40;99.90
19970;DHT22;10146;47.754;9.566;2023-04-24T05:24:35;9.50;99.90
19970;DHT22;10146;47.754;9.566;2023-04-24T05:27:04;9.50;99.90
19970;DHT22;10146;47.754;9.566;2023-04-24T05:29:30;9.50;99.90
19970;DHT22;10146;47.754;9.566;2023-04-24T05:31:57;9.50;99.90
19970;DHT22;10146;47.754;9.566;2023-04-24T05:34:23;9.50;99.90
19970;DHT22;10146;47.754;9.566;2023-04-24T05:36:49;9.60;99.90
19970;DHT22;10146;47.754;9.566;2023-04-24T05:39:16;9.60;99.90
19970;DHT22;10146;47.754;9.566;2023-04-24T05:41:42;9.60;99.90
19970;DHT22;10146;47.754;9.566;2023-04-24T05:44:07;9.70;99.90
19970;DHT22;10146;47.754;9.566;2023-04-24T05:46:33;9.60;99.90
19970;DHT22;10146;47.754;9.566;2023-04-24T05:48:58;9.60;99.90
19970;DHT22;10146;47.754;9.566;2023-04-24T05:51:24;9.60;99.90
19970;DHT22;10146;47.754;9.566;2023-04-24T05:53:51;9.60;99.90
19970;DHT22;10146;47.754;9.566;2023-04-24T05:56:17;9.60;99.90
19970;DHT22;10146;47.754;9.566;2023-04-24T05:58:42;9.50;99.90
19970;DHT22;10146;47.754;9.566;2023-04-24T06:01:08;9.50;99.90
19970;DHT22;10146;47.754;9.566;2023-04-24T06:03:34;9.50;99.90
19970;DHT22;10146;47.754;9.566;2023-04-24T06:05:59;9.60;99.90
19970;DHT22;10146;47.754;9.566;2023-04-24T06:08:25;9.50;99.90
19970;DHT22;10146;47.754;9.566;2023-04-24T06:10:51;9.50;99.90
19970;DHT22;10146;47.754;9.566;2023-04-24T06:13:17;9.40;99.90
19970;DHT22;10146;47.754;9.566;2023-04-24T06:15:43;9.40;99.90
19970;DHT22;10146;47.754;9.566;2023-04-24T06:18:09;9.50;99.90
19970;DHT22;10146;47.754;9.566;2023-04-24T06:20:38;9.40;99.90
19970;DHT22;10146;47.754;9.566;2023-04-24T06:23:03;9.40;99.90
19970;DHT22;10146;47.754;9.566;2023-04-24T06:25:29;9.40;99.90
19970;DHT22;10146;47.754;9.566;2023-04-24T06:27:55;9.40;99.90
19970;DHT22;10146;47.754;9.566;2023-04-24T06:30:21;9.50;99.90
19970;DHT22;10146;47.754;9.566;2023-04-24T06:32:47;9.40;99.90
19970;DHT22;10146;47.754;9.566;2023-04-24T06:35:13;9.40;99.90
19970;DHT22;10146;47.754;9.566;2023-04-24T06:37:39;9.50;99.90
19970;DHT22;10146;47.754;9.566;2023-04-24T06:40:06;9.50;99.90
19970;DHT22;10146;47.754;9.566;2023-04-24T06:42:31;9.40;99.90
19970;DHT22;10146;47.754;9.566;2023-04-24T06:44:57;9.50;99.90
19970;DHT22;10146;47.754;9.566;2023-04-24T06:47:22;9.60;99.90
19970;DHT22;10146;47.754;9.566;2023-04-24T06:49:48;9.70;99.90
19970;DHT22;10146;47.754;9.566;2023-04-24T06:52:16;10.00;99.90
19970;DHT22;10146;47.754;9.566;2023-04-24T06:54:42;10.00;99.90
19970;DHT22;10146;47.754;9.566;2023-04-24T06:57:08;10.00;99.90
19970;DHT22;10146;47.754;9.566;2023-04-24T06:59:34;9.80;99.90
19970;DHT22;10146;47.754;9.566;2023-04-24T07:02:00;9.80;99.90
19970;DHT22;10146;47.754;9.566;2023-04-24T07:04:26;9.90;99.90
19970;DHT22;10146;47.754;9.566;2023-04-24T07:06:52;9.90;99.90
19970;DHT22;10146;47.754;9.566;2023-04-24T07:09:19;10.00;99.90
19970;DHT22;10146;47.754;9.566;2023-04-24T07:11:45;10.10;99.90
19970;DHT22;10146;47.754;9.566;2023-04-24T07:14:11;10.10;99.90
19970;DHT22;10146;47.754;9.566;2023-04-24T07:16:37;10.20;99.90
19970;DHT22;10146;47.754;9.566;2023-04-24T07:19:03;10.20;99.90
19970;DHT22;10146;47.754;9.566;2023-04-24T07:21:28;10.20;99.90
19970;DHT22;10146;47.754;9.566;2023-04-24T07:23:56;10.10;99.90
19970;DHT22;10146;47.754;9.566;2023-04-24T07:26:22;10.20;99.90
19970;DHT22;10146;47.754;9.566;2023-04-24T07:28:47;10.50;99.90
19970;DHT22;10146;47.754;9.566;2023-04-24T07:31:13;10.60;99.90
19970;DHT22;10146;47.754;9.566;2023-04-24T07:33:38;10.50;99.90
19970;DHT22;10146;47.754;9.566;2023-04-24T07:36:04;10.70;99.90
19970;DHT22;10146;47.754;9.566;2023-04-24T07:38:30;10.80;99.90
19970;DHT22;10146;47.754;9.566;2023-04-24T07:40:56;10.90;99.90
19970;DHT22;10146;47.754;9.566;2023-04-24T07:43:22;11.00;99.90
19970;DHT22;10146;47.754;9.566;2023-04-24T07:45:49;11.10;99.90
19970;DHT22;10146;47.754;9.566;2023-04-24T07:48:15;11.10;99.90
19970;DHT22;10146;47.754;9.566;2023-04-24T07:50:42;11.10;99.90
19970;DHT22;10146;47.754;9.566;2023-04-24T07:53:07;11.10;99.90
19970;DHT22;10146;47.754;9.566;2023-04-24T07:55:33;11.20;99.90
19970;DHT22;10146;47.754;9.566;2023-04-24T07:57:59;11.40;99.90
19970;DHT22;10146;47.754;9.566;2023-04-24T08:00:24;11.30;99.90
19970;DHT22;10146;47.754;9.566;2023-04-24T08:02:50;11.30;99.90
19970;DHT22;10146;47.754;9.566;2023-04-24T08:05:16;11.30;99.90
19970;DHT22;10146;47.754;9.566;2023-04-24T08:07:41;11.50;99.90
19970;DHT22;10146;47.754;9.566;2023-04-24T08:10:11;11.90;99.90
19970;DHT22;10146;47.754;9.566;2023-04-24T08:12:37;11.80;99.90
19970;DHT22;10146;47.754;9.566;2023-04-24T08:15:04;11.70;99.90
19970;DHT22;10146;47.754;9.566;2023-04-24T08:17:30;11.80;99.90
19970;DHT22;10146;47.754;9.566;2023-04-24T08:19:55;11.60;99.90
19970;DHT22;10146;47.754;9.566;2023-04-24T08:22:27;11.40;99.90
19970;DHT22;10146;47.754;9.566;2023-04-24T08:24:53;11.60;99.90
19970;DHT22;10146;47.754;9.566;2023-04-24T08:27:18;11.60;99.90
19970;DHT22;10146;47.754;9.566;2023-04-24T08:29:44;11.80;99.90
19970;DHT22;10146;47.754;9.566;2023-04-24T08:32:10;11.80;99.90
19970;DHT22;10146;47.754;9.566;2023-04-24T08:34:35;12.00;99.90
19970;DHT22;10146;47.754;9.566;2023-04-24T08:37:01;12.00;99.90
19970;DHT22;10146;47.754;9.566;2023-04-24T08:39:27;12.10;99.90
19970;DHT22;10146;47.754;9.566;2023-04-24T08:41:53;11.80;99.90
19970;DHT22;10146;47.754;9.566;2023-04-24T08:44:20;11.60;99.90
19970;DHT22;10146;47.754;9.566;2023-04-24T08:46:47;11.40;99.90
19970;DHT22;10146;47.754;9.566;2023-04-24T08:49:14;11.30;99.90
19970;DHT22;10146;47.754;9.566;2023-04-24T08:51:42;11.30;99.90
19970;DHT22;10146;47.754;9.566;2023-04-24T08:54:08;11.40;99.90
19970;DHT22;10146;47.754;9.566;2023-04-24T08:56:34;11.50;99.90
19970;DHT22;10146;47.754;9.566;2023-04-24T08:59:03;11.50;99.90
19970;DHT22;10146;47.754;9.566;2023-04-24T09:01:32;11.40;99.90
19970;DHT22;10146;47.754;9.566;2023-04-24T09:04:01;11.40;99.90
19970;DHT22;10146;47.754;9.566;2023-04-24T09:06:27;11.20;99.90
19970;DHT22;10146;47.754;9.566;2023-04-24T09:08:54;11.30;99.90
19970;DHT22;10146;47.754;9.566;2023-04-24T09:11:21;11.40;99.90
19970;DHT22;10146;47.754;9.566;2023-04-24T09:13:49;11.70;99.90
19970;DHT22;10146;47.754;9.566;2023-04-24T09:16:16;11.80;99.90
19970;DHT22;10146;47.754;9.566;2023-04-24T09:18:42;12.00;99.90
19970;DHT22;10146;47.754;9.566;2023-04-24T09:21:09;12.10;99.90
19970;DHT22;10146;47.754;9.566;2023-04-24T09:23:35;12.10;99.90
19970;DHT22;10146;47.754;9.566;2023-04-24T09:26:02;11.90;99.90
19970;DHT22;10146;47.754;9.566;2023-04-24T09:28:32;11.90;99.90
19970;DHT22;10146;47.754;9.566;2023-04-24T09:31:13;12.10;99.90
19970;DHT22;10146;47.754;9.566;2023-04-24T09:34:00;12.30;99.90
19970;DHT22;10146;47.754;9.566;2023-04-24T09:36:40;12.50;99.90
19970;DHT22;10146;47.754;9.566;2023-04-24T09:39:17;12.70;99.90
19970;DHT22;10146;47.754;9.566;2023-04-24T09:41:55;13.10;99.90
19970;DHT22;10146;47.754;9.566;2023-04-24T09:44:25;13.20;99.90
19970;DHT22;10146;47.754;9.566;2023-04-24T09:46:57;13.30;99.90
19970;DHT22;10146;47.754;9.566;2023-04-24T09:51:52;12.70;99.90
19970;DHT22;10146;47.754;9.566;2023-04-24T09:54:27;12.90;99.90
19970;DHT22;10146;47.754;9.566;2023-04-24T09:56:54;13.20;99.90
19970;DHT22;10146;47.754;9.566;2023-04-24T09:59:20;13.40;99.90
19970;DHT22;10146;47.754;9.566;2023-04-24T10:01:46;13.20;99.90
19970;DHT22;10146;47.754;9.566;2023-04-24T10:06:44;12.90;99.90
19970;DHT22;10146;47.754;9.566;2023-04-24T10:09:09;12.80;99.90
19970;DHT22;10146;47.754;9.566;2023-04-24T10:11:37;12.50;99.90
19970;DHT22;10146;47.754;9.566;2023-04-24T10:14:05;12.50;99.90
19970;DHT22;10146;47.754;9.566;2023-04-24T10:16:31;12.60;99.90
19970;DHT22;10146;47.754;9.566;2023-04-24T10:18:59;12.80;99.90
19970;DHT22;10146;47.754;9.566;2023-04-24T10:21:26;12.90;99.90
19970;DHT22;10146;47.754;9.566;2023-04-24T10:23:52;13.50;99.90
19970;DHT22;10146;47.754;9.566;2023-04-24T10:26:19;13.30;99.90
19970;DHT22;10146;47.754;9.566;2023-04-24T10:28:46;13.30;99.90
19970;DHT22;10146;47.754;9.566;2023-04-24T10:31:14;13.40;99.90
19970;DHT22;10146;47.754;9.566;2023-04-24T10:33:43;13.70;99.90
19970;DHT22;10146;47.754;9.566;2023-04-24T10:36:11;13.80;99.90
19970;DHT22;10146;47.754;9.566;2023-04-24T10:38:39;13.90;99.90
19970;DHT22;10146;47.754;9.566;2023-04-24T10:41:10;13.90;99.90
19970;DHT22;10146;47.754;9.566;2023-04-24T10:43:42;14.10;99.90
19970;DHT22;10146;47.754;9.566;2023-04-24T10:46:08;14.10;99.90
19970;DHT22;10146;47.754;9.566;2023-04-24T10:48:35;13.90;99.90
19970;DHT22;10146;47.754;9.566;2023-04-24T10:51:01;13.60;99.90
19970;DHT22;10146;47.754;9.566;2023-04-24T10:53:28;13.50;99.90
19970;DHT22;10146;47.754;9.566;2023-04-24T10:58:25;13.90;99.90
19970;DHT22;10146;47.754;9.566;2023-04-24T11:01:00;14.00;99.90
19970;DHT22;10146;47.754;9.566;2023-04-24T11:03:31;14.10;99.90
19970;DHT22;10146;47.754;9.566;2023-04-24T11:06:03;14.10;99.90
19970;DHT22;10146;47.754;9.566;2023-04-24T11:08:43;14.10;98.90
19970;DHT22;10146;47.754;9.566;2023-04-24T11:11:11;13.80;97.80
19970;DHT22;10146;47.754;9.566;2023-04-24T11:16:51;13.50;97.00
19970;DHT22;10146;47.754;9.566;2023-04-24T11:19:20;13.40;97.80
19970;DHT22;10146;47.754;9.566;2023-04-24T11:32:41;13.40;99.50
19970;DHT22;10146;47.754;9.566;2023-04-24T11:37:38;13.80;96.10
19970;DHT22;10146;47.754;9.566;2023-04-24T11:40:06;14.20;97.20
19970;DHT22;10146;47.754;9.566;2023-04-24T11:42:39;14.40;96.30
19970;DHT22;10146;47.754;9.566;2023-04-24T11:47:35;14.40;96.00
19970;DHT22;10146;47.754;9.566;2023-04-24T11:50:02;14.80;95.70
19970;DHT22;10146;47.754;9.566;2023-04-24T11:52:29;14.50;93.40
19970;DHT22;10146;47.754;9.566;2023-04-24T11:54:55;14.70;93.50
19970;DHT22;10146;47.754;9.566;2023-04-24T11:57:22;14.50;94.20
19970;DHT22;10146;47.754;9.566;2023-04-24T11:59:49;14.60;93.40
19970;DHT22;10146;47.754;9.566;2023-04-24T12:04:47;13.80;94.90
19970;DHT22;10146;47.754;9.566;2023-04-24T12:07:13;14.30;97.30
19970;DHT22;10146;47.754;9.566;2023-04-24T12:09:55;14.70;95.00
19970;DHT22;10146;47.754;9.566;2023-04-24T12:12:25;15.00;93.40
19970;DHT22;10146;47.754;9.566;2023-04-24T12:14:56;14.80;92.00
19970;DHT22;10146;47.754;9.566;2023-04-24T12:17:30;14.60;91.90
19970;DHT22;10146;47.754;9.566;2023-04-24T12:19:59;14.70;93.40
19970;DHT22;10146;47.754;9.566;2023-04-24T12:22:26;15.00;93.10
19970;DHT22;10146;47.754;9.566;2023-04-24T12:25:02;14.70;90.60
19970;DHT22;10146;47.754;9.566;2023-04-24T12:27:33;14.90;92.30
19970;DHT22;10146;47.754;9.566;2023-04-24T12:30:00;14.70;90.00
19970;DHT22;10146;47.754;9.566;2023-04-24T12:32:26;14.80;88.80
19970;DHT22;10146;47.754;9.566;2023-04-24T12:34:53;14.70;90.40
19970;DHT22;10146;47.754;9.566;2023-04-24T12:37:19;14.30;89.40
19970;DHT22;10146;47.754;9.566;2023-04-24T12:42:30;14.50;91.00
19970;DHT22;10146;47.754;9.566;2023-04-24T12:45:02;14.80;91.60
19970;DHT22;10146;47.754;9.566;2023-04-24T12:47:28;14.90;90.30
19970;DHT22;10146;47.754;9.566;2023-04-24T12:49:54;15.00;89.30
19970;DHT22;10146;47.754;9.566;2023-04-24T12:52:24;15.00;87.60
19970;DHT22;10146;47.754;9.566;2023-04-24T12:54:53;15.10;87.50
19970;DHT22;10146;47.754;9.566;2023-04-24T12:57:20;15.10;90.10
19970;DHT22;10146;47.754;9.566;2023-04-24T12:59:45;15.60;88.60
19970;DHT22;10146;47.754;9.566;2023-04-24T13:02:11;15.40;91.80
19970;DHT22;10146;47.754;9.566;2023-04-24T13:04:37;15.70;91.60
19970;DHT22;10146;47.754;9.566;2023-04-24T13:07:03;16.10;90.50
19970;DHT22;10146;47.754;9.566;2023-04-24T13:09:30;16.00;88.80
19970;DHT22;10146;47.754;9.566;2023-04-24T13:11:55;16.20;87.30
19970;DHT22;10146;47.754;9.566;2023-04-24T13:14:22;16.20;90.00
19970;DHT22;10146;47.754;9.566;2023-04-24T13:16:48;15.20;83.80
19970;DHT22;10146;47.754;9.566;2023-04-24T13:19:13;15.20;86.30
19970;DHT22;10146;47.754;9.566;2023-04-24T13:21:39;15.40;83.40
19970;DHT22;10146;47.754;9.566;2023-04-24T13:24:05;15.30;82.90
19970;DHT22;10146;47.754;9.566;2023-04-24T13:26:31;15.20;83.90
19970;DHT22;10146;47.754;9.566;2023-04-24T13:28:56;15.80;87.70
19970;DHT22;10146;47.754;9.566;2023-04-24T13:31:22;16.50;86.80
19970;DHT22;10146;47.754;9.566;2023-04-24T13:33:47;16.80;81.90
19970;DHT22;10146;47.754;9.566;2023-04-24T13:36:13;16.70;80.60
19970;DHT22;10146;47.754;9.566;2023-04-24T13:38:39;16.50;83.30
19970;DHT22;10146;47.754;9.566;2023-04-24T13:41:05;16.20;80.30
19970;DHT22;10146;47.754;9.566;2023-04-24T13:43:30;16.40;79.10
19970;DHT22;10146;47.754;9.566;2023-04-24T13:45:56;17.20;83.60
19970;DHT22;10146;47.754;9.566;2023-04-24T13:48:21;17.40;75.20
19970;DHT22;10146;47.754;9.566;2023-04-24T13:50:47;17.30;72.60
19970;DHT22;10146;47.754;9.566;2023-04-24T13:53:15;17.10;72.20
19970;DHT22;10146;47.754;9.566;2023-04-24T13:55:41;17.60;72.60
19970;DHT22;10146;47.754;9.566;2023-04-24T13:58:07;17.70;73.40
19970;DHT22;10146;47.754;9.566;2023-04-24T14:00:33;17.70;74.30
19970;DHT22;10146;47.754;9.566;2023-04-24T14:02:58;17.10;72.90
19970;DHT22;10146;47.754;9.566;2023-04-24T14:05:24;17.00;74.20
19970;DHT22;10146;47.754;9.566;2023-04-24T14:07:51;16.20;74.50
19970;DHT22;10146;47.754;9.566;2023-04-24T14:10:16;16.30;75.40
19970;DHT22;10146;47.754;9.566;2023-04-24T14:12:42;16.60;79.10
19970;DHT22;10146;47.754;9.566;2023-04-24T14:15:08;16.10;73.30
19970;DHT22;10146;47.754;9.566;2023-04-24T14:17:34;16.60;75.30
19970;DHT22;10146;47.754;9.566;2023-04-24T14:20:00;17.40;73.20
19970;DHT22;10146;47.754;9.566;2023-04-24T14:22:26;17.30;71.00
19970;DHT22;10146;47.754;9.566;2023-04-24T14:24:51;17.30;74.60
19970;DHT22;10146;47.754;9.566;2023-04-24T14:27:17;18.10;67.80
19970;DHT22;10146;47.754;9.566;2023-04-24T14:29:42;16.80;73.10
19970;DHT22;10146;47.754;9.566;2023-04-24T14:32:10;16.40;76.20
19970;DHT22;10146;47.754;9.566;2023-04-24T14:34:35;16.90;71.60
19970;DHT22;10146;47.754;9.566;2023-04-24T14:37:01;17.60;71.20
19970;DHT22;10146;47.754;9.566;2023-04-24T14:39:27;18.40;66.00
19970;DHT22;10146;47.754;9.566;2023-04-24T14:41:53;17.90;65.70
19970;DHT22;10146;47.754;9.566;2023-04-24T14:44:19;17.50;72.20
19970;DHT22;10146;47.754;9.566;2023-04-24T14:46:45;15.90;74.70
19970;DHT22;10146;47.754;9.566;2023-04-24T14:49:10;15.50;75.50
19970;DHT22;10146;47.754;9.566;2023-04-24T14:51:37;15.50;76.10
19970;DHT22;10146;47.754;9.566;2023-04-24T14:54:03;15.00;75.70
19970;DHT22;10146;47.754;9.566;2023-04-24T14:56:29;14.80;77.80
19970;DHT22;10146;47.754;9.566;2023-04-24T14:58:55;14.80;77.00
19970;DHT22;10146;47.754;9.566;2023-04-24T15:01:21;14.70;75.80
19970;DHT22;10146;47.754;9.566;2023-04-24T15:03:46;14.90;77.60
19970;DHT22;10146;47.754;9.566;2023-04-24T15:06:12;14.80;79.90
19970;DHT22;10146;47.754;9.566;2023-04-24T15:08:38;14.60;79.60
19970;DHT22;10146;47.754;9.566;2023-04-24T15:11:03;14.70;80.70
19970;DHT22;10146;47.754;9.566;2023-04-24T15:13:29;14.60;82.00
19970;DHT22;10146;47.754;9.566;2023-04-24T15:15:55;14.30;83.60
19970;DHT22;10146;47.754;9.566;2023-04-24T15:18:20;14.40;81.80
19970;DHT22;10146;47.754;9.566;2023-04-24T15:20:46;14.70;82.00
19970;DHT22;10146;47.754;9.566;2023-04-24T15:23:12;15.00;82.10
19970;DHT22;10146;47.754;9.566;2023-04-24T15:25:38;14.80;79.80
19970;DHT22;10146;47.754;9.566;2023-04-24T15:28:04;14.50;82.00
19970;DHT22;10146;47.754;9.566;2023-04-24T15:30:31;14.70;82.60
19970;DHT22;10146;47.754;9.566;2023-04-24T15:32:56;15.00;84.30
19970;DHT22;10146;47.754;9.566;2023-04-24T15:35:22;15.00;83.90
19970;DHT22;10146;47.754;9.566;2023-04-24T15:37:48;14.70;80.80
19970;DHT22;10146;47.754;9.566;2023-04-24T15:40:14;14.70;82.80
19970;DHT22;10146;47.754;9.566;2023-04-24T15:42:42;14.60;81.90
19970;DHT22;10146;47.754;9.566;2023-04-24T15:45:08;14.40;83.20
19970;DHT22;10146;47.754;9.566;2023-04-24T15:47:34;14.50;83.80
19970;DHT22;10146;47.754;9.566;2023-04-24T15:50:01;14.30;84.60
19970;DHT22;10146;47.754;9.566;2023-04-24T15:52:27;14.10;85.10
19970;DHT22;10146;47.754;9.566;2023-04-24T15:54:52;14.10;84.60
19970;DHT22;10146;47.754;9.566;2023-04-24T15:57:18;14.10;85.20
19970;DHT22;10146;47.754;9.566;2023-04-24T15:59:44;14.30;86.30
19970;DHT22;10146;47.754;9.566;2023-04-24T16:02:12;14.20;85.30